createdAt,value
2023-03-25T00:00:53.210Z,97.93
2023-03-25T00:03:22.278Z,97.89
2023-03-25T00:05:50.218Z,98.41
2023-03-25T00:08:18.094Z,98.56
2023-03-25T00:10:47.073Z,97.22
2023-03-25T00:13:16.284Z,97.70
2023-03-25T00:15:47.617Z,98.70
2023-03-25T00:18:17.367Z,99.17
2023-03-25T00:20:45.952Z,98.52
2023-03-25T00:23:14.126Z,99.19
2023-03-25T00:25:41.790Z,98.27
2023-03-25T00:28:10.649Z,98.64
2023-03-25T00:30:39.213Z,98.19
2023-03-25T00:33:10.689Z,97.41
2023-03-25T00:35:39.515Z,97.56
2023-03-25T00:38:07.886Z,97.05
2023-03-25T00:40:35.608Z,96.91
2023-03-25T00:43:05.340Z,97.01
2023-03-25T00:45:35.245Z,97.21
2023-03-25T00:48:05.023Z,97.18
2023-03-25T00:50:34.450Z,97.77
2023-03-25T00:53:03.324Z,97.63
2023-03-25T00:55:30.962Z,97.58
2023-03-25T00:57:59.396Z,97.52
2023-03-25T01:00:27.131Z,97.13
2023-03-25T01:02:56.294Z,96.44
2023-03-25T01:05:24.877Z,96.81
2023-03-25T01:07:52.549Z,96.57
2023-03-25T01:10:20.323Z,97.07
2023-03-25T01:12:48.197Z,97.21
2023-03-25T01:15:16.242Z,96.58
2023-03-25T01:17:43.990Z,96.77
2023-03-25T01:20:13.656Z,96.85
2023-03-25T01:22:41.380Z,96.74
2023-03-25T01:25:09.544Z,96.30
2023-03-25T01:27:37.264Z,95.17
2023-03-25T01:30:05.579Z,94.87
2023-03-25T01:32:33.411Z,94.54
2023-03-25T01:35:00.990Z,95.00
2023-03-25T01:37:33.982Z,94.21
2023-03-25T01:40:02.267Z,94.38
2023-03-25T01:42:29.882Z,94.16
2023-03-25T01:45:32.645Z,93.65
2023-03-25T01:48:06.020Z,92.98
2023-03-25T01:50:35.898Z,93.19
2023-03-25T01:53:06.078Z,93.23
2023-03-25T01:55:36.291Z,93.04
2023-03-25T01:58:11.816Z,93.36
2023-03-25T02:00:40.569Z,93.03
2023-03-25T02:03:13.660Z,92.62
2023-03-25T02:05:49.858Z,92.71
2023-03-25T02:08:22.515Z,93.23
2023-03-25T02:10:52.108Z,93.16
2023-03-25T02:13:21.289Z,93.12
2023-03-25T02:16:09.106Z,94.16
2023-03-25T02:18:48.270Z,93.91
2023-03-25T02:21:56.638Z,94.20
2023-03-25T02:25:01.901Z,93.96
2023-03-25T02:27:48.313Z,92.97
2023-03-25T02:30:52.413Z,94.31
2023-03-25T02:33:38.680Z,95.67
2023-03-25T02:36:38.692Z,96.83
2023-03-25T02:39:14.235Z,97.53
2023-03-25T02:41:51.054Z,98.03
2023-03-25T02:44:26.106Z,98.17
2023-03-25T02:46:57.596Z,98.16
2023-03-25T02:49:28.783Z,98.61
2023-03-25T02:52:03.385Z,97.82
2023-03-25T02:54:37.092Z,98.45
2023-03-25T02:57:07.695Z,98.84
2023-03-25T02:59:38.309Z,99.39
2023-03-25T03:02:11.366Z,100.00
2023-03-25T03:04:49.280Z,100.00
2023-03-25T03:07:24.958Z,100.00
2023-03-25T03:18:10.400Z,100.00
2023-03-25T03:20:45.159Z,100.00
2023-03-25T03:23:26.701Z,100.00
2023-03-25T03:26:02.338Z,100.00
2023-03-25T03:28:34.041Z,100.00
2023-03-25T03:31:07.061Z,100.00
2023-03-25T03:33:41.395Z,100.00
2023-03-25T03:36:13.471Z,100.00
2023-03-25T03:38:46.189Z,100.00
2023-03-25T03:41:20.001Z,100.00
2023-03-25T03:43:52.740Z,100.00
2023-03-25T03:46:25.913Z,100.00
2023-03-25T03:48:58.292Z,100.00
2023-03-25T03:51:32.432Z,100.00
2023-03-25T03:54:03.935Z,100.00
2023-03-25T03:56:41.267Z,100.00
2023-03-25T03:59:14.261Z,100.00
2023-03-25T04:01:46.020Z,100.00
2023-03-25T04:04:17.166Z,100.00
2023-03-25T04:06:50.586Z,100.00
2023-03-25T04:09:27.434Z,100.00
2023-03-25T04:11:59.536Z,100.00
2023-03-25T04:14:27.037Z,100.00
2023-03-25T04:16:56.393Z,100.00
2023-03-25T04:19:27.600Z,100.00
2023-03-25T04:21:55.421Z,100.00
2023-03-25T04:24:25.077Z,100.00
2023-03-25T04:26:52.983Z,100.00
2023-03-25T04:29:20.665Z,100.00
2023-03-25T04:31:50.140Z,100.00
2023-03-25T04:34:20.509Z,100.00
2023-03-25T04:36:50.294Z,100.00
2023-03-25T04:39:22.417Z,100.00
2023-03-25T04:41:51.079Z,100.00
2023-03-25T04:44:18.611Z,100.00
2023-03-25T04:49:38.848Z,100.00
2023-03-25T04:52:09.213Z,100.00
2023-03-25T04:54:39.304Z,100.00
2023-03-25T04:57:08.583Z,100.00
2023-03-25T04:59:37.051Z,100.00
2023-03-25T05:02:06.059Z,100.00
2023-03-25T05:04:34.598Z,100.00
2023-03-25T05:07:02.425Z,100.00
2023-03-25T05:09:31.554Z,100.00
2023-03-25T05:11:59.171Z,100.00
2023-03-25T05:14:27.897Z,100.00
2023-03-25T05:16:59.230Z,100.00
2023-03-25T05:19:53.347Z,100.00
2023-03-25T05:22:22.382Z,100.00
2023-03-25T05:24:53.322Z,100.00
2023-03-25T05:27:20.877Z,100.00
2023-03-25T05:29:48.561Z,100.00
2023-03-25T05:32:17.616Z,100.00
2023-03-25T05:34:46.497Z,100.00
2023-03-25T05:37:14.366Z,100.00
2023-03-25T05:39:45.630Z,100.00
2023-03-25T05:42:15.157Z,100.00
2023-03-25T05:44:50.804Z,100.00
2023-03-25T05:47:21.714Z,100.00
2023-03-25T05:49:51.310Z,100.00
2023-03-25T05:52:20.562Z,100.00
2023-03-25T05:54:50.590Z,100.00
2023-03-25T05:57:21.390Z,100.00
2023-03-25T05:59:51.115Z,100.00
2023-03-25T06:02:18.725Z,100.00
2023-03-25T06:04:50.443Z,100.00
2023-03-25T06:07:20.645Z,100.00
2023-03-25T06:09:48.713Z,100.00
2023-03-25T06:12:17.658Z,100.00
2023-03-25T06:14:48.341Z,100.00
2023-03-25T06:17:19.008Z,100.00
2023-03-25T06:19:47.150Z,100.00
2023-03-25T06:22:15.464Z,100.00
2023-03-25T06:24:43.681Z,100.00
2023-03-25T06:27:16.294Z,100.00
2023-03-25T06:29:49.305Z,100.00
2023-03-25T06:32:19.308Z,100.00
2023-03-25T06:34:46.885Z,100.00
2023-03-25T06:37:18.544Z,100.00
2023-03-25T06:39:49.634Z,100.00
2023-03-25T06:42:20.994Z,100.00
2023-03-25T06:45:08.453Z,100.00
2023-03-25T06:47:45.957Z,100.00
2023-03-25T06:50:13.538Z,100.00
2023-03-25T06:52:41.415Z,100.00
2023-03-25T06:55:09.682Z,100.00
2023-03-25T06:57:37.906Z,100.00
2023-03-25T07:00:09.098Z,100.00
2023-03-25T07:02:36.672Z,100.00
2023-03-25T07:05:05.365Z,100.00
2023-03-25T07:07:34.148Z,100.00
2023-03-25T07:10:01.787Z,100.00
2023-03-25T07:12:29.361Z,100.00
2023-03-25T07:14:59.089Z,100.00
2023-03-25T07:17:28.381Z,100.00
2023-03-25T07:19:57.831Z,100.00
2023-03-25T07:22:25.413Z,100.00
2023-03-25T07:24:53.184Z,100.00
2023-03-25T07:27:21.345Z,100.00
2023-03-25T07:29:59.698Z,100.00
2023-03-25T07:32:28.714Z,100.00
2023-03-25T07:34:56.423Z,100.00
2023-03-25T07:37:25.439Z,100.00
2023-03-25T07:39:52.969Z,100.00
2023-03-25T07:42:20.558Z,100.00
2023-03-25T07:45:16.961Z,100.00
2023-03-25T07:47:50.564Z,100.00
2023-03-25T07:50:18.203Z,100.00
2023-03-25T07:52:46.202Z,100.00
2023-03-25T07:55:16.908Z,100.00
2023-03-25T07:57:45.470Z,99.64
2023-03-25T08:00:14.571Z,97.97
2023-03-25T08:02:42.630Z,98.02
2023-03-25T08:05:12.387Z,95.97
2023-03-25T08:07:40.446Z,94.75
2023-03-25T08:10:09.646Z,95.51
2023-03-25T08:12:38.329Z,93.99
2023-03-25T08:15:06.666Z,94.22
2023-03-25T08:17:36.241Z,94.40
2023-03-25T08:20:05.601Z,92.98
2023-03-25T08:22:34.817Z,91.69
2023-03-25T08:25:02.441Z,89.30
2023-03-25T08:27:32.468Z,88.67
2023-03-25T08:30:00.730Z,89.41
2023-03-25T08:32:29.392Z,91.21
2023-03-25T08:34:58.040Z,90.67
2023-03-25T08:37:26.362Z,90.54
2023-03-25T08:39:57.965Z,90.14
2023-03-25T08:42:26.319Z,89.74
2023-03-25T08:44:54.417Z,83.46
2023-03-25T08:47:22.098Z,85.59
2023-03-25T08:49:49.697Z,86.00
2023-03-25T08:52:17.227Z,85.33
2023-03-25T08:54:44.808Z,84.27
2023-03-25T08:57:13.954Z,84.34
2023-03-25T08:59:42.113Z,84.00
2023-03-25T09:02:11.582Z,81.48
2023-03-25T09:04:39.468Z,80.63
2023-03-25T09:07:12.067Z,80.80
2023-03-25T09:09:40.250Z,80.94
2023-03-25T09:12:10.529Z,79.32
2023-03-25T09:14:39.696Z,80.10
2023-03-25T09:17:10.066Z,79.76
2023-03-25T09:19:39.409Z,79.43
2023-03-25T09:22:08.129Z,80.49
2023-03-25T09:24:35.895Z,79.23
2023-03-25T09:27:04.391Z,79.35
2023-03-25T09:29:32.223Z,78.43
2023-03-25T09:32:01.241Z,78.84
2023-03-25T09:34:29.354Z,79.83
2023-03-25T09:36:57.174Z,80.42
2023-03-25T09:39:25.313Z,80.40
2023-03-25T09:42:10.604Z,81.46
2023-03-25T09:44:52.321Z,81.72
2023-03-25T09:47:24.699Z,83.41
2023-03-25T09:49:58.812Z,84.38
2023-03-25T09:52:32.397Z,87.46
2023-03-25T09:55:03.998Z,90.57
2023-03-25T09:57:33.367Z,99.30
2023-03-25T10:00:06.929Z,100.00
2023-03-25T10:02:41.882Z,100.00
2023-03-25T10:05:27.323Z,100.00
2023-03-25T10:08:09.392Z,100.00
2023-03-25T10:10:41.476Z,100.00
2023-03-25T10:13:20.115Z,100.00
2023-03-25T10:15:55.316Z,98.86
2023-03-25T10:18:45.403Z,98.80
2023-03-25T10:21:20.622Z,100.00
2023-03-25T10:24:21.156Z,98.10
2023-03-25T10:26:55.314Z,96.18
2023-03-25T10:29:31.532Z,92.32
2023-03-25T10:32:04.331Z,92.64
2023-03-25T10:34:39.213Z,89.91
2023-03-25T10:37:12.350Z,90.09
2023-03-25T10:39:45.280Z,90.61
2023-03-25T10:42:26.598Z,91.59
2023-03-25T10:44:55.346Z,91.94
2023-03-25T10:47:26.749Z,92.97
2023-03-25T10:49:56.426Z,94.76
2023-03-25T10:52:24.743Z,95.33
2023-03-25T10:54:56.336Z,95.80
2023-03-25T10:57:28.347Z,96.43
2023-03-25T11:00:01.764Z,96.56
2023-03-25T11:02:33.034Z,95.24
2023-03-25T11:05:06.449Z,94.41
2023-03-25T11:07:38.312Z,90.80
2023-03-25T11:10:17.908Z,91.58
2023-03-25T11:12:46.520Z,92.89
2023-03-25T11:15:17.127Z,92.61
2023-03-25T11:17:48.891Z,91.02
2023-03-25T11:20:23.454Z,91.79
2023-03-25T11:22:57.328Z,90.59
2023-03-25T11:25:30.621Z,91.26
2023-03-25T11:28:31.539Z,91.08
2023-03-25T11:31:12.244Z,90.43
2023-03-25T11:33:42.149Z,90.69
2023-03-25T11:36:30.231Z,89.47
2023-03-25T11:39:00.404Z,86.66
2023-03-25T11:41:34.276Z,87.34
2023-03-25T11:44:06.128Z,87.00
2023-03-25T11:46:43.387Z,86.86
2023-03-25T11:49:17.727Z,88.01
2023-03-25T11:51:46.922Z,88.27
2023-03-25T11:54:42.476Z,89.20
2023-03-25T11:57:16.151Z,89.86
2023-03-25T11:59:46.496Z,90.89
2023-03-25T12:02:26.367Z,91.86
2023-03-25T12:05:00.268Z,94.54
2023-03-25T12:07:41.841Z,99.72
2023-03-25T12:10:18.432Z,100.00
2023-03-25T12:13:01.061Z,100.00
2023-03-25T12:15:40.792Z,100.00
2023-03-25T12:18:36.333Z,100.00
2023-03-25T12:21:11.901Z,100.00
2023-03-25T12:23:47.137Z,100.00
2023-03-25T12:26:18.552Z,100.00
2023-03-25T12:29:07.687Z,100.00
2023-03-25T12:31:47.543Z,100.00
2023-03-25T12:34:27.209Z,100.00
2023-03-25T12:37:06.224Z,100.00
2023-03-25T12:39:49.298Z,100.00
2023-03-25T12:42:33.695Z,100.00
2023-03-25T12:45:24.362Z,100.00
2023-03-25T12:47:58.455Z,100.00
2023-03-25T12:50:39.433Z,100.00
2023-03-25T12:53:24.440Z,100.00
2023-03-25T12:56:06.917Z,100.00
2023-03-25T12:58:52.638Z,100.00
2023-03-25T13:01:28.231Z,100.00
2023-03-25T13:04:43.588Z,98.70
2023-03-25T13:07:15.813Z,99.61
2023-03-25T13:09:54.624Z,100.00
2023-03-25T13:12:32.193Z,100.00
2023-03-25T13:15:07.651Z,100.00
2023-03-25T13:17:40.382Z,100.00
2023-03-25T13:20:12.347Z,100.00
2023-03-25T13:22:48.312Z,100.00
2023-03-25T13:25:26.341Z,100.00
2023-03-25T13:27:58.007Z,98.86
2023-03-25T13:30:32.409Z,99.34
2023-03-25T13:33:06.458Z,99.42
2023-03-25T13:35:43.825Z,99.71
2023-03-25T13:38:17.296Z,100.00
2023-03-25T13:40:54.626Z,100.00
2023-03-25T13:43:29.892Z,100.00
2023-03-25T13:46:26.783Z,100.00
2023-03-25T13:49:00.382Z,100.00
2023-03-25T13:51:28.503Z,100.00
2023-03-25T13:54:00.126Z,100.00
2023-03-25T13:57:10.353Z,100.00
2023-03-25T14:00:13.465Z,100.00
2023-03-25T14:03:11.465Z,100.00
2023-03-25T14:06:09.707Z,100.00
2023-03-25T14:09:18.756Z,100.00
2023-03-25T14:11:52.323Z,100.00
2023-03-25T14:14:23.330Z,100.00
2023-03-25T14:16:54.626Z,100.00
2023-03-25T14:19:29.427Z,100.00
2023-03-25T14:21:57.546Z,100.00
2023-03-25T14:24:30.349Z,100.00
2023-03-25T14:27:29.140Z,100.00
2023-03-25T14:30:00.343Z,100.00
2023-03-25T14:32:34.400Z,100.00
2023-03-25T14:35:41.278Z,100.00
2023-03-25T14:38:49.465Z,100.00
2023-03-25T14:41:18.578Z,100.00
2023-03-25T14:43:53.028Z,100.00
2023-03-25T14:49:22.191Z,100.00
2023-03-25T14:51:53.365Z,100.00
2023-03-25T14:54:29.528Z,100.00
2023-03-25T14:57:06.670Z,100.00
2023-03-25T14:59:38.789Z,100.00
2023-03-25T15:02:15.114Z,100.00
2023-03-25T15:04:45.059Z,100.00
2023-03-25T15:07:19.574Z,100.00
2023-03-25T15:10:18.010Z,100.00
2023-03-25T15:12:53.330Z,100.00
2023-03-25T15:15:32.945Z,100.00
2023-03-25T15:18:01.070Z,100.00
2023-03-25T15:20:35.901Z,100.00
2023-03-25T15:23:41.298Z,100.00
2023-03-25T15:26:16.358Z,100.00
2023-03-25T15:29:00.627Z,100.00
2023-03-25T15:31:40.645Z,100.00
2023-03-25T15:34:19.408Z,100.00
2023-03-25T15:37:14.081Z,100.00
2023-03-25T15:40:05.040Z,100.00
2023-03-25T15:42:51.387Z,100.00
2023-03-25T15:45:57.781Z,100.00
2023-03-25T15:48:55.345Z,100.00
2023-03-25T15:51:47.830Z,100.00
2023-03-25T15:54:26.304Z,100.00
2023-03-25T15:56:59.018Z,100.00
2023-03-25T15:59:34.989Z,100.00
2023-03-25T16:02:06.304Z,100.00
2023-03-25T16:04:40.633Z,100.00
2023-03-25T16:07:10.790Z,100.00
2023-03-25T16:09:44.652Z,100.00
2023-03-25T16:12:12.414Z,100.00
2023-03-25T16:14:44.119Z,100.00
2023-03-25T16:17:12.761Z,100.00
2023-03-25T16:19:44.297Z,100.00
2023-03-25T16:22:16.707Z,100.00
2023-03-25T16:24:46.277Z,100.00
2023-03-25T16:27:20.526Z,100.00
2023-03-25T16:29:50.035Z,100.00
2023-03-25T16:32:20.888Z,100.00
2023-03-25T16:34:53.720Z,100.00
2023-03-25T16:37:25.102Z,100.00
2023-03-25T16:39:54.443Z,100.00
2023-03-25T16:42:28.034Z,100.00
2023-03-25T16:44:55.990Z,100.00
2023-03-25T16:47:24.489Z,100.00
2023-03-25T16:49:56.334Z,100.00
2023-03-25T16:52:29.441Z,100.00
2023-03-25T16:55:30.343Z,100.00
2023-03-25T16:58:01.035Z,100.00
2023-03-25T17:00:43.445Z,100.00
2023-03-25T17:03:17.581Z,100.00
2023-03-25T17:05:54.833Z,100.00
2023-03-25T17:08:23.435Z,100.00
2023-03-25T17:10:56.282Z,100.00
2023-03-25T17:13:27.102Z,100.00
2023-03-25T17:15:54.999Z,100.00
2023-03-25T17:18:28.685Z,100.00
2023-03-25T17:21:01.330Z,100.00
2023-03-25T17:23:36.522Z,100.00
2023-03-25T17:26:09.476Z,100.00
2023-03-25T17:28:39.790Z,100.00
2023-03-25T17:31:29.552Z,100.00
2023-03-25T17:34:05.310Z,100.00
2023-03-25T17:36:36.279Z,100.00
2023-03-25T17:39:06.904Z,100.00
2023-03-25T17:41:38.681Z,100.00
2023-03-25T17:44:08.459Z,100.00
2023-03-25T17:46:36.249Z,100.00
2023-03-25T17:49:15.563Z,100.00
2023-03-25T17:51:45.502Z,100.00
2023-03-25T17:54:14.396Z,100.00
2023-03-25T17:56:42.334Z,100.00
2023-03-25T17:59:17.350Z,100.00
2023-03-25T18:01:46.220Z,100.00
2023-03-25T18:04:15.719Z,100.00
2023-03-25T18:06:45.114Z,100.00
2023-03-25T18:09:17.118Z,100.00
2023-03-25T18:11:45.851Z,100.00
2023-03-25T18:14:13.776Z,100.00
2023-03-25T18:16:41.492Z,100.00
2023-03-25T18:19:14.541Z,100.00
2023-03-25T18:21:45.349Z,100.00
2023-03-25T18:24:15.214Z,100.00
2023-03-25T18:26:44.372Z,100.00
2023-03-25T18:29:17.324Z,100.00
2023-03-25T18:31:44.994Z,100.00
2023-03-25T18:34:13.672Z,100.00
2023-03-25T18:36:41.760Z,100.00
2023-03-25T18:39:14.859Z,100.00
2023-03-25T18:41:42.773Z,100.00
2023-03-25T18:44:11.379Z,100.00
2023-03-25T18:46:40.195Z,100.00
2023-03-25T18:49:13.349Z,100.00
2023-03-25T18:51:41.028Z,100.00
2023-03-25T18:54:08.545Z,100.00
2023-03-25T18:56:37.877Z,100.00
2023-03-25T18:59:05.836Z,100.00
2023-03-25T19:01:34.479Z,100.00
2023-03-25T19:04:03.343Z,100.00
2023-03-25T19:06:31.964Z,100.00
2023-03-25T19:09:01.339Z,100.00
2023-03-25T19:11:33.589Z,100.00
2023-03-25T19:14:03.466Z,100.00
2023-03-25T19:16:32.044Z,100.00
2023-03-25T19:19:00.364Z,100.00
2023-03-25T19:21:28.041Z,100.00
2023-03-25T19:23:55.889Z,100.00
2023-03-25T19:26:23.778Z,100.00
2023-03-25T19:28:51.963Z,100.00
2023-03-25T19:31:21.162Z,100.00
2023-03-25T19:33:48.835Z,100.00
2023-03-25T19:36:18.858Z,100.00
2023-03-25T19:38:46.738Z,100.00
2023-03-25T19:41:16.440Z,100.00
2023-03-25T19:43:44.403Z,100.00
2023-03-25T19:46:12.497Z,100.00
2023-03-25T19:48:41.675Z,100.00
2023-03-25T19:51:09.438Z,100.00
2023-03-25T19:53:37.043Z,100.00
2023-03-25T19:56:05.787Z,100.00
2023-03-25T19:58:34.457Z,100.00
2023-03-25T20:01:02.315Z,100.00
2023-03-25T20:03:32.572Z,100.00
2023-03-25T20:06:06.349Z,100.00
2023-03-25T20:08:34.539Z,100.00
2023-03-25T20:11:09.016Z,100.00
2023-03-25T20:13:36.949Z,100.00
2023-03-25T20:16:05.038Z,100.00
2023-03-25T20:18:33.685Z,100.00
2023-03-25T20:21:03.464Z,100.00
2023-03-25T20:23:31.160Z,100.00
2023-03-25T20:25:58.694Z,100.00
2023-03-25T20:28:26.497Z,100.00
2023-03-25T20:30:55.234Z,100.00
2023-03-25T20:33:23.914Z,100.00
2023-03-25T20:35:51.843Z,100.00
2023-03-25T20:38:21.432Z,100.00
2023-03-25T20:40:50.370Z,100.00
2023-03-25T20:43:18.792Z,100.00
2023-03-25T20:45:46.448Z,100.00
2023-03-25T20:48:14.532Z,100.00
2023-03-25T20:50:43.404Z,100.00
2023-03-25T20:53:10.954Z,100.00
2023-03-25T20:55:40.288Z,100.00
2023-03-25T20:58:08.703Z,100.00
2023-03-25T21:00:37.293Z,100.00
2023-03-25T21:03:05.217Z,100.00
2023-03-25T21:05:33.317Z,100.00
2023-03-25T21:08:01.120Z,100.00
2023-03-25T21:10:28.717Z,100.00
2023-03-25T21:12:57.672Z,100.00
2023-03-25T21:15:26.102Z,100.00
2023-03-25T21:17:53.973Z,100.00
2023-03-25T21:20:23.787Z,100.00
2023-03-25T21:22:51.389Z,100.00
2023-03-25T21:25:19.168Z,100.00
2023-03-25T21:27:46.936Z,100.00
2023-03-25T21:30:16.525Z,100.00
2023-03-25T21:32:44.861Z,100.00
2023-03-25T21:35:14.390Z,100.00
2023-03-25T21:37:41.944Z,100.00
2023-03-25T21:40:11.716Z,100.00
2023-03-25T21:42:42.365Z,100.00
2023-03-25T21:45:13.632Z,100.00
2023-03-25T21:47:44.952Z,100.00
2023-03-25T21:50:16.339Z,100.00
2023-03-25T21:52:46.458Z,100.00
2023-03-25T21:55:16.920Z,100.00
2023-03-25T21:57:47.431Z,100.00
2023-03-25T22:00:19.422Z,100.00
2023-03-25T22:02:49.317Z,100.00
2023-03-25T22:05:17.729Z,100.00
2023-03-25T22:07:45.373Z,100.00
2023-03-25T22:10:13.114Z,100.00
2023-03-25T22:12:41.514Z,100.00
2023-03-25T22:15:11.162Z,100.00
2023-03-25T22:17:39.515Z,100.00
2023-03-25T22:20:10.103Z,100.00
2023-03-25T22:22:38.357Z,100.00
2023-03-25T22:25:07.739Z,100.00
2023-03-25T22:27:35.878Z,100.00
2023-03-25T22:30:03.596Z,100.00
2023-03-25T22:32:31.317Z,100.00
2023-03-25T22:34:59.325Z,100.00
2023-03-25T22:37:28.301Z,100.00
2023-03-25T22:39:56.012Z,100.00
2023-03-25T22:42:25.622Z,100.00
2023-03-25T22:44:54.767Z,100.00
2023-03-25T22:47:22.353Z,100.00
2023-03-25T22:52:43.361Z,100.00
2023-03-25T22:55:11.691Z,100.00
2023-03-25T22:57:39.400Z,100.00
2023-03-25T23:00:14.028Z,100.00
2023-03-25T23:02:42.454Z,100.00
2023-03-25T23:05:11.387Z,100.00
2023-03-25T23:07:39.016Z,100.00
2023-03-25T23:10:09.231Z,100.00
2023-03-25T23:12:36.997Z,100.00
2023-03-25T23:15:05.122Z,100.00
2023-03-25T23:17:36.406Z,100.00
2023-03-25T23:20:08.346Z,100.00
2023-03-25T23:22:35.899Z,100.00
2023-03-25T23:25:04.789Z,100.00
2023-03-25T23:27:36.361Z,100.00
2023-03-25T23:30:05.171Z,100.00
2023-03-25T23:32:34.613Z,100.00
2023-03-25T23:35:03.400Z,100.00
2023-03-25T23:37:33.905Z,100.00
2023-03-25T23:40:01.544Z,100.00
2023-03-25T23:42:34.774Z,100.00
2023-03-25T23:45:06.248Z,100.00
2023-03-25T23:47:33.820Z,100.00
2023-03-25T23:50:02.089Z,100.00
2023-03-25T23:52:33.391Z,100.00
2023-03-25T23:55:01.857Z,100.00
2023-03-25T23:57:30.224Z,100.00
2023-03-25T23:59:57.794Z,100.00
